Allen, South Dakota
Current Conditions -  °F | °C
As of 11:52 AM on Tuesday 27 Jan 2015 (Local Time) from KIEN Reporting Station
Clear Clear  
Wind Chill: 63°   Ceiling: Unl
Heat Index: 63°   Visibility: 10mi
Dew Point: 30°   Wind: 12mph
Humidity: 29%   Direction: 270°W
Pressure: 29.98"   Gusts: NA
Location:  43.28°N, 101.93°W
Report Text: KIEN 271852Z AUTO 27010KT 10SM CLR 17/M01 A2998 RMK AO2 SLP149 T01721011
Loading
Personal Weather Stations






























Interactive Weather Map New forecast layout! Learn more

10-Day Weather Forecast

Advertisements
Track Severe Weather on mobile